• Join FlightAware (Why Join?)
  • Login
  • US Flag 
Rudolph Flight #1: Arrived! 
05:56PM EST


 

Airport Tracker/Info


-or-


 

Live Flight TrackerFlight Track Log ✈ N710TJ ✈ 28-Apr-2013 ✈ KHQM - KUAO

Flight Track Log - Related Links

Times and Time Zones

All times are in EDT time to prevent confusion due to time zone crossing. See the N710TJ flight status page for this flight to view local times or setup timezone preferences in your user account.

Time Position Orientation Groundspeed Altitude Reporting Facility
EDT Latitude Longitude Course Direction KTS MPH feet Rate Location/Type
02:21PM 46.8054 -123.9973 292° West  Level FlightAware Approximate
02:22PM 46.8204 -124.0523 292° West  Level FlightAware Approximate
02:23PM 46.8280 -124.0982 167° South  Level FlightAware Approximate
02:23PM 46.9547 -124.0775 168° South 98 113 3,600  Level Seattle Center
02:24PM 46.7885 -124.0851 167° South  Level FlightAware Approximate
02:24PM 46.9508 -124.1156 261° West 96 110 4,300  Level Seattle Center
02:25PM 46.7492 -124.0709 166° South  Level FlightAware Approximate
02:25PM 46.9456 -124.1522 258° West 94 108 4,900  Level Seattle Center
02:26PM 46.7099 -124.0566 166° South  Level FlightAware Approximate
02:26PM 46.9108 -124.1506 178° South 133 153 5,000  Level Seattle Center
02:27PM 46.6705 -124.0423 166° South  Level FlightAware Approximate
02:27PM 46.8722 -124.1278 158° South 146 168 4,900  Level Seattle Center
02:28PM 46.6312 -124.0280 166° South  Level FlightAware Approximate
02:28PM 46.8347 -124.1147 167° South 144 166 5,400  Level Seattle Center
02:29PM 46.5918 -124.0141 168° South  Level FlightAware Approximate
02:29PM 46.7986 -124.1031 168° South 137 158 5,800  Level Seattle Center
02:30PM 46.7631 -124.0908 167° South 134 154 6,300 300 Climbing Seattle Center
02:31PM 46.7267 -124.0778 166° South 134 154 6,500 60 Climbing Seattle Center
02:32PM 46.6839 -124.0611 165° South 153 176 6,500  Level Seattle Center
02:34PM 46.6400 -124.0456 166° South 159 183 6,500  Level Seattle Center
02:35PM 46.5967 -124.0317 168° South 160 184 6,500  Level Seattle Center
02:36PM 46.5442 -124.0142 167° South 161 185 6,500  Level Seattle Center
02:37PM 46.5011 -123.9978 165° South 161 185 6,500  Level Seattle Center
02:38PM 46.4578 -123.9831 167° South 160 184 6,500  Level Seattle Center
02:39PM 46.4181 -123.9700 167° South 161 185 6,500  Level Seattle Center
02:40PM 46.3753 -123.9544 166° South 160 184 6,500  Level Seattle Center
02:41PM 46.3325 -123.9397 167° South 159 183 6,500  Level Seattle Center
02:42PM 46.2894 -123.9236 166° South 159 183 6,500  Level Seattle Center
02:43PM 46.2367 -123.9069 168° South 161 185 6,500 -60 Level Seattle Center
02:44PM 46.1939 -123.8925 167° South 160 184 6,400  Descending Seattle Center
02:45PM 46.1500 -123.8769 166° South 161 185 6,500  Climbing Seattle Center
02:46PM 46.1089 -123.8553 160° South 159 183 6,500  Level Seattle Center
02:47PM 46.0919 -123.7864 110° East 171 197 6,500  Level Seattle Center
02:48PM 46.0747 -123.7206 111° Southeast 176 203 6,500  Level Seattle Center
02:49PM 46.0564 -123.6564 112° Southeast 175 201 6,500  Level Seattle Center
02:50PM 46.0375 -123.5908 113° Southeast 176 203 6,500  Level Seattle Center
02:50PM 46.0228 -123.5361 111° Southeast 175 201 6,500  Level Seattle Center
02:51PM 46.0183 -123.5267 124° Southeast 176 203 6,500  Level Seattle Center
02:51PM 46.0092 -123.4983 115° Southeast 173 199 6,500 -120 Level Seattle Center
02:52PM 46.0006 -123.4625 109° East 175 201 6,400  Descending Seattle Center
02:52PM 45.9922 -123.4336 113° Southeast 174 200 6,500  Climbing Seattle Center
02:53PM 45.9728 -123.3764 116° Southeast 176 203 6,400 -240 Descending Seattle Center
02:54PM 45.9597 -123.3361 115° Southeast 175 201 6,100 -420 Descending Seattle Center
02:54PM 45.9514 -123.3103 115° Southeast 173 199 5,900 -1,020 Descending Seattle Center
02:55PM 45.9222 -123.2814 145° Southeast 171 197 5,100 -840 Descending Seattle Center
02:55PM 45.9067 -123.2694 152° Southeast 160 184 5,100 -240 Level Seattle Center
02:56PM 45.8847 -123.2525 152° Southeast 160 184 4,900 -180 Descending Seattle Center
02:56PM 45.8681 -123.2383 149° Southeast 143 165 4,900  Level Seattle Center
02:57PM 45.8486 -123.2242 153° Southeast 153 176 4,900  Level Seattle Center
02:57PM 45.8328 -123.2122 152° Southeast 147 169 4,900  Level Seattle Center
02:58PM 45.8133 -123.1989 154° Southeast 146 168 4,900 60 Level Seattle Center
02:58PM 45.7947 -123.1839 151° Southeast 143 165 5,000  Climbing Seattle Center
02:59PM 45.7781 -123.1714 152° Southeast 145 167 4,900 -120 Descending Seattle Center
02:59PM 45.7589 -123.1550 149° Southeast 149 171 4,900 -240 Level Seattle Center
03:00PM 45.7417 -123.1436 155° Southeast 147 169 4,700 -420 Descending Seattle Center
03:00PM 45.7208 -123.1269 151° Southeast 156 180 4,500 -540 Descending Seattle Center
03:01PM 45.7017 -123.1142 155° Southeast 153 176 4,200 -480 Descending Seattle Center
03:01PM 45.6772 -123.0919 148° Southeast 164 189 4,000 -300 Descending Seattle Center
03:02PM 45.6622 -123.0833 158° South 160 184 3,900 -360 Descending Seattle Center
03:02PM 45.6419 -123.0661 149° Southeast 159 183 3,700 -240 Descending Seattle Center
03:03PM 45.6231 -123.0544 157° South 159 183 3,700 -120 Level Seattle Center
03:03PM 45.6039 -123.0381 149° Southeast 150 173 3,600 -120 Descending Seattle Center
03:04PM 45.5858 -123.0253 154° Southeast 155 178 3,600  Level Seattle Center
03:04PM 45.5633 -123.0081 152° Southeast 149 171 3,600  Level Seattle Center
03:05PM 45.5492 -122.9975 152° Southeast 151 174 3,600  Level Seattle Center
03:06PM 45.5247 -122.9772 150° Southeast 147 169 3,600  Level Seattle Center
03:06PM 45.5133 -122.9708 159° South 148 170 3,600  Level Seattle Center
03:07PM 45.4894 -122.9514 150° Southeast 149 171 3,600  Level Seattle Center
03:07PM 45.4767 -122.9431 155° Southeast 148 170 3,600  Level Seattle Center
03:08PM 45.4514 -122.9236 152° Southeast 149 171 3,600  Level Seattle Center
03:08PM 45.4333 -122.9097 152° Southeast 148 170 3,600  Level Seattle Center
03:08PM 45.4206 -122.8992 150° Southeast 140 161 3,600  Level Seattle Center
03:09PM 45.4050 -122.8886 155° Southeast 145 167 3,600  Level Seattle Center